Time;durP1;ratioP1;P1;durP2;ratioP2;P2;SDS_P1;SDS_P2;PMS_P1;PMS_P2;Temp;Humidity;BMP_temperature;BMP_pressure;BME280_temperature;BME280_humidity;BME280_pressure;Samples;Min_cycle;Max_cycle;Signal;HPM_P1;HPM_P2
2022/03/01 00:01:52;;;;;;;19.05;9.60;;;-0.30;99.90;;;;;;5031886;28;20393;-65
2022/03/01 00:04:21;;;;;;;16.88;9.13;;;-0.30;99.90;;;;;;5031633;28;20053;-66
2022/03/01 00:06:48;;;;;;;22.17;9.85;;;-0.30;99.90;;;;;;5034269;28;20472;-64
2022/03/01 00:09:16;;;;;;;22.13;9.98;;;-0.30;99.90;;;;;;5035431;28;20125;-64
2022/03/01 00:11:43;;;;;;;20.30;9.75;;;-0.40;99.90;;;;;;5042496;28;20064;-66
2022/03/01 00:14:10;;;;;;;20.73;10.88;;;-0.30;99.90;;;;;;5035566;28;20472;-66
2022/03/01 00:16:38;;;;;;;18.55;9.15;;;-0.30;99.90;;;;;;5036593;28;20488;-66
2022/03/01 00:19:06;;;;;;;19.17;9.43;;;-0.30;99.90;;;;;;5041206;28;20048;-64
2022/03/01 00:21:33;;;;;;;19.42;10.07;;;-0.30;99.90;;;;;;5033975;28;20045;-66
2022/03/01 00:24:00;;;;;;;18.65;9.43;;;-0.40;99.90;;;;;;5042564;28;20050;-65
2022/03/01 00:26:28;;;;;;;18.42;9.25;;;-0.40;99.90;;;;;;5035230;28;20045;-65
2022/03/01 00:28:56;;;;;;;17.00;8.63;;;-0.40;99.90;;;;;;5034312;28;20053;-64
2022/03/01 00:31:24;;;;;;;18.17;10.23;;;-0.40;99.90;;;;;;5031725;28;20077;-65
2022/03/01 00:33:52;;;;;;;18.73;9.98;;;-0.40;99.90;;;;;;5034268;28;20424;-66
2022/03/01 00:36:19;;;;;;;17.85;9.45;;;-0.40;99.90;;;;;;5028117;28;20037;-66
2022/03/01 00:38:46;;;;;;;17.85;9.35;;;-0.40;99.90;;;;;;5030622;28;20037;-66
2022/03/01 00:41:14;;;;;;;19.58;9.60;;;-0.40;99.90;;;;;;5043226;28;20068;-66
2022/03/01 00:43:42;;;;;;;22.33;10.10;;;-0.50;99.90;;;;;;5037491;28;20064;-66
2022/03/01 00:46:09;;;;;;;20.42;9.52;;;-0.50;99.90;;;;;;5026239;28;20056;-65
2022/03/01 00:48:37;;;;;;;16.15;9.43;;;-0.60;99.90;;;;;;5040539;28;20049;-65
2022/03/01 00:51:05;;;;;;;17.05;9.18;;;-0.50;99.90;;;;;;5028286;28;20037;-65
2022/03/01 00:53:32;;;;;;;22.80;10.88;;;-0.60;99.90;;;;;;5035071;28;20045;-65
2022/03/01 00:56:04;;;;;;;19.90;9.77;;;-0.60;99.90;;;;;;5032712;28;20041;-65
2022/03/01 00:58:31;;;;;;;20.65;9.35;;;-0.70;99.90;;;;;;5035453;28;20052;-65
2022/03/01 01:00:59;;;;;;;18.17;9.88;;;-0.70;99.90;;;;;;5033962;28;20401;-65
2022/03/01 01:03:26;;;;;;;20.20;9.88;;;-0.80;99.90;;;;;;5027902;28;20041;-65
2022/03/01 01:05:54;;;;;;;22.58;9.75;;;-0.80;99.90;;;;;;5032742;28;20427;-65
2022/03/01 01:08:22;;;;;;;18.95;9.30;;;-0.90;99.90;;;;;;5040557;28;20072;-65
2022/03/01 01:10:49;;;;;;;20.52;9.68;;;-0.90;99.90;;;;;;5051397;28;20056;-66
2022/03/01 01:13:17;;;;;;;18.48;9.48;;;-0.90;99.90;;;;;;5036797;28;20040;-65
2022/03/01 01:15:45;;;;;;;15.98;9.65;;;-0.90;99.90;;;;;;5035848;28;20057;-66
2022/03/01 01:18:12;;;;;;;16.48;8.23;;;-0.90;99.90;;;;;;5035302;28;20408;-65
2022/03/01 01:20:40;;;;;;;20.00;9.40;;;-0.90;99.90;;;;;;5037108;28;20099;-65
2022/03/01 01:23:08;;;;;;;19.23;9.25;;;-0.90;99.90;;;;;;5034787;28;20037;-65
2022/03/01 01:25:35;;;;;;;22.40;10.35;;;-0.90;99.90;;;;;;5027558;28;20060;-65
2022/03/01 01:28:03;;;;;;;17.25;9.50;;;-0.90;99.90;;;;;;5041911;28;20060;-65
2022/03/01 01:30:33;;;;;;;18.05;8.98;;;-0.90;99.90;;;;;;5046784;28;20551;-65
2022/03/01 01:33:00;;;;;;;24.30;9.88;;;-0.90;99.90;;;;;;5033971;28;20449;-64
2022/03/01 01:35:30;;;;;;;18.88;9.02;;;-0.90;99.90;;;;;;5028803;28;20041;-64
2022/03/01 01:37:59;;;;;;;17.20;8.57;;;-1.00;99.90;;;;;;5040356;28;20476;-64
2022/03/01 01:40:30;;;;;;;18.00;7.88;;;-0.90;99.90;;;;;;5038824;28;20128;-64
2022/03/01 01:42:59;;;;;;;17.70;9.17;;;-0.90;99.90;;;;;;5044181;28;20507;-64
2022/03/01 01:45:27;;;;;;;14.55;8.23;;;-0.90;99.90;;;;;;5041749;28;20049;-65
2022/03/01 01:47:56;;;;;;;19.73;8.50;;;-1.00;99.90;;;;;;5039914;28;20248;-65
2022/03/01 01:50:25;;;;;;;16.80;9.13;;;-0.90;99.90;;;;;;5044663;28;20194;-65
2022/03/01 01:52:53;;;;;;;21.30;9.65;;;-0.90;99.90;;;;;;5026109;28;20067;-64
2022/03/01 01:55:23;;;;;;;18.27;9.05;;;-0.80;99.90;;;;;;5037907;28;20073;-64
2022/03/01 01:57:56;;;;;;;19.45;8.98;;;-0.80;99.90;;;;;;5031400;28;20052;-65
2022/03/01 02:00:23;;;;;;;21.88;10.25;;;-0.80;99.90;;;;;;5032013;28;20046;-65
2022/03/01 02:02:51;;;;;;;21.90;11.60;;;-0.90;99.90;;;;;;5043158;28;20044;-64
2022/03/01 02:05:18;;;;;;;19.80;8.98;;;-0.80;99.90;;;;;;5048958;28;20045;-65
2022/03/01 02:07:47;;;;;;;19.10;9.07;;;-0.80;99.90;;;;;;5037307;28;20053;-65
2022/03/01 02:10:16;;;;;;;17.08;8.85;;;-0.90;99.90;;;;;;5036447;28;20555;-65
2022/03/01 02:12:45;;;;;;;17.27;8.52;;;-0.90;99.90;;;;;;5035410;28;20079;-64
2022/03/01 02:15:13;;;;;;;16.65;8.77;;;-0.90;99.90;;;;;;5038120;28;20073;-66
2022/03/01 02:17:42;;;;;;;17.73;8.52;;;-0.90;99.90;;;;;;5039052;28;20136;-66
2022/03/01 02:20:20;;;;;;;17.88;8.55;;;-0.90;99.90;;;;;;5039734;28;20408;-64
2022/03/01 02:22:55;;;;;;;18.33;9.48;;;-0.90;99.90;;;;;;5032937;28;20049;-63
2022/03/01 02:25:24;;;;;;;17.33;8.18;;;-1.00;99.90;;;;;;5037751;28;20041;-65
2022/03/01 02:27:51;;;;;;;15.68;8.60;;;-1.00;99.90;;;;;;5038191;28;20056;-65
2022/03/01 02:30:19;;;;;;;16.83;8.18;;;-1.00;99.90;;;;;;5036737;28;20049;-65
2022/03/01 02:32:48;;;;;;;18.65;8.20;;;-1.00;99.90;;;;;;5031080;28;20045;-65
2022/03/01 02:35:16;;;;;;;20.05;8.95;;;-1.00;99.90;;;;;;5041228;28;20128;-65
2022/03/01 02:37:44;;;;;;;19.33;8.90;;;-1.00;99.90;;;;;;5037188;28;20064;-65
2022/03/01 02:40:12;;;;;;;17.70;8.23;;;-1.10;99.90;;;;;;5041425;28;20048;-64
2022/03/01 02:42:41;;;;;;;19.27;8.43;;;-1.20;99.90;;;;;;5035662;28;20072;-66
2022/03/01 02:45:11;;;;;;;18.55;8.90;;;-1.20;99.90;;;;;;5037226;28;20076;-65
2022/03/01 02:47:39;;;;;;;16.27;7.82;;;-1.20;99.90;;;;;;5034746;28;20049;-65
2022/03/01 02:50:08;;;;;;;17.35;8.65;;;-1.20;99.90;;;;;;5025915;28;20048;-66
2022/03/01 02:52:37;;;;;;;17.42;9.45;;;-1.20;99.90;;;;;;5036423;28;20504;-66
2022/03/01 02:55:05;;;;;;;17.27;8.55;;;-1.20;99.90;;;;;;5036383;28;20065;-66
2022/03/01 02:57:33;;;;;;;17.92;8.57;;;-1.20;99.90;;;;;;5044414;28;20048;-66
2022/03/01 03:00:00;;;;;;;14.68;8.05;;;-1.30;99.90;;;;;;5029436;28;20033;-66
2022/03/01 03:02:28;;;;;;;15.77;8.30;;;-1.30;99.90;;;;;;5029568;28;20045;-66
2022/03/01 03:04:55;;;;;;;15.50;7.78;;;-1.30;99.90;;;;;;5034110;28;20052;-65
2022/03/01 03:07:23;;;;;;;17.83;9.20;;;-1.30;99.90;;;;;;5037682;28;20053;-65
2022/03/01 03:09:50;;;;;;;17.92;8.73;;;-1.40;99.90;;;;;;5030605;28;20053;-65
2022/03/01 03:12:18;;;;;;;16.92;8.85;;;-1.40;99.90;;;;;;5023943;28;20525;-66
2022/03/01 03:14:45;;;;;;;19.92;9.07;;;-1.50;99.90;;;;;;5026899;28;20420;-66
2022/03/01 03:17:13;;;;;;;18.45;8.95;;;-1.50;99.90;;;;;;5031577;28;20041;-65
2022/03/01 03:19:40;;;;;;;15.27;8.23;;;-1.50;99.90;;;;;;5031824;28;20053;-66
2022/03/01 03:22:07;;;;;;;17.50;8.73;;;-1.60;99.90;;;;;;5034070;28;20296;-65
2022/03/01 03:24:34;;;;;;;17.40;8.50;;;-1.60;99.90;;;;;;5038934;28;20045;-65
2022/03/01 03:27:02;;;;;;;17.20;8.73;;;-1.60;99.90;;;;;;5027057;28;20041;-66
2022/03/01 03:29:29;;;;;;;18.40;8.82;;;-1.70;99.90;;;;;;5012474;28;20045;-65
2022/03/01 03:31:57;;;;;;;19.00;8.90;;;-1.60;99.90;;;;;;5038123;28;20057;-65
2022/03/01 03:34:25;;;;;;;15.43;8.23;;;-1.60;99.90;;;;;;5040527;28;20580;-65
2022/03/01 03:36:53;;;;;;;15.63;7.95;;;-1.70;99.90;;;;;;5048282;28;20408;-66
2022/03/01 03:39:20;;;;;;;14.23;8.30;;;-1.80;99.90;;;;;;5024065;28;20035;-66
2022/03/01 03:41:51;;;;;;;15.23;8.00;;;-1.80;99.90;;;;;;5044082;28;20061;-65
2022/03/01 03:44:18;;;;;;;15.73;7.97;;;-1.80;99.90;;;;;;5048370;28;20574;-65
2022/03/01 03:46:48;;;;;;;15.80;8.40;;;-1.90;99.90;;;;;;5044672;28;20269;-65
2022/03/01 03:49:15;;;;;;;17.30;7.97;;;-1.90;99.90;;;;;;5046308;28;20041;-66
2022/03/01 03:51:44;;;;;;;16.80;8.35;;;-2.00;99.90;;;;;;5049003;28;20049;-66
2022/03/01 03:54:11;;;;;;;16.08;8.15;;;-2.00;99.90;;;;;;5034408;28;20060;-66
2022/03/01 03:56:39;;;;;;;16.17;8.30;;;-2.10;99.90;;;;;;5028737;28;20197;-66
2022/03/01 03:59:07;;;;;;;15.50;8.63;;;-2.10;99.90;;;;;;5028428;28;20535;-65
2022/03/01 04:01:35;;;;;;;15.30;7.45;;;-2.10;99.90;;;;;;5030002;28;20068;-66
2022/03/01 04:04:04;;;;;;;15.40;7.72;;;-2.20;99.90;;;;;;5029393;28;20049;-65
2022/03/01 04:06:32;;;;;;;15.43;7.93;;;-2.20;99.90;;;;;;5037931;28;20053;-65
2022/03/01 04:08:59;;;;;;;16.63;7.78;;;-2.20;99.90;;;;;;5044233;28;20072;-65
2022/03/01 04:11:27;;;;;;;17.10;8.27;;;-2.20;99.90;;;;;;5023944;28;20385;-66
2022/03/01 04:13:54;;;;;;;20.70;8.20;;;-2.20;99.90;;;;;;5030018;28;20072;-65
2022/03/01 04:16:21;;;;;;;15.00;8.25;;;-2.20;99.90;;;;;;5030781;28;20171;-65
2022/03/01 04:18:49;;;;;;;17.48;7.80;;;-2.20;99.90;;;;;;5030377;28;20869;-63
2022/03/01 04:21:17;;;;;;;15.18;8.20;;;-2.20;99.90;;;;;;5030721;28;20483;-65
2022/03/01 04:23:44;;;;;;;15.52;8.27;;;-2.30;99.90;;;;;;5027746;28;20041;-64
2022/03/01 04:26:13;;;;;;;12.38;7.35;;;-2.30;99.90;;;;;;5026462;28;20095;-66
2022/03/01 04:28:41;;;;;;;15.35;8.40;;;-2.30;99.90;;;;;;5036569;28;20558;-65
2022/03/01 04:31:08;;;;;;;18.35;8.65;;;-2.40;99.90;;;;;;5037704;28;20049;-65
2022/03/01 04:33:36;;;;;;;15.95;8.30;;;-2.40;99.90;;;;;;5035165;28;20045;-65
2022/03/01 04:36:06;;;;;;;16.73;8.40;;;-2.40;99.90;;;;;;5030485;28;20049;-65
2022/03/01 04:38:33;;;;;;;18.08;8.27;;;-2.40;99.90;;;;;;5040350;28;20488;-65
2022/03/01 04:41:01;;;;;;;17.65;8.35;;;-2.40;99.90;;;;;;5034392;28;20520;-65
2022/03/01 04:43:28;;;;;;;16.35;8.63;;;-2.40;99.90;;;;;;5033480;28;20403;-65
2022/03/01 04:45:56;;;;;;;17.95;8.80;;;-2.50;99.90;;;;;;5026492;28;20087;-65
2022/03/01 04:48:25;;;;;;;20.50;9.15;;;-2.50;99.90;;;;;;5036402;28;20571;-65
2022/03/01 04:50:52;;;;;;;19.00;10.07;;;-2.50;99.90;;;;;;5035479;28;20053;-65
2022/03/01 04:53:19;;;;;;;22.02;9.32;;;-2.60;99.90;;;;;;5033777;28;20045;-64
2022/03/01 04:55:47;;;;;;;17.27;9.45;;;-2.60;99.90;;;;;;5032669;28;20046;-64
2022/03/01 04:58:18;;;;;;;18.75;9.55;;;-2.60;99.90;;;;;;5046165;28;20388;-64
2022/03/01 05:00:45;;;;;;;18.33;9.57;;;-2.70;99.90;;;;;;5032424;28;20075;-64
2022/03/01 05:03:13;;;;;;;18.80;9.55;;;-2.70;99.90;;;;;;5028819;28;20128;-64
2022/03/01 05:05:40;;;;;;;21.05;9.70;;;-2.70;99.90;;;;;;5021633;28;20038;-65
2022/03/01 05:08:08;;;;;;;21.63;10.55;;;-2.70;99.90;;;;;;5032309;28;20499;-65
2022/03/01 05:10:35;;;;;;;21.85;10.65;;;-2.80;99.90;;;;;;5022283;28;20042;-64
2022/03/01 05:13:07;;;;;;;17.98;10.07;;;-2.70;99.90;;;;;;5027631;28;20469;-64
2022/03/01 05:15:35;;;;;;;19.17;9.25;;;-2.80;99.90;;;;;;5037981;28;20417;-65
2022/03/01 05:18:02;;;;;;;20.15;8.82;;;-2.70;99.90;;;;;;5038081;28;20382;-65
2022/03/01 05:20:30;;;;;;;18.85;9.45;;;-2.70;99.90;;;;;;5039131;28;20088;-64
2022/03/01 05:22:57;;;;;;;18.67;9.60;;;-2.70;99.90;;;;;;5041009;28;20523;-65
2022/03/01 05:25:25;;;;;;;23.35;9.40;;;-2.70;99.90;;;;;;5039219;28;20111;-66
2022/03/01 05:27:53;;;;;;;18.08;9.52;;;-2.70;99.90;;;;;;5041885;28;20048;-65
2022/03/01 05:30:22;;;;;;;18.30;10.13;;;-2.70;99.90;;;;;;5033258;28;20042;-65
2022/03/01 05:32:53;;;;;;;19.58;9.50;;;-2.70;99.90;;;;;;5033584;28;20045;-66
2022/03/01 05:35:25;;;;;;;18.23;9.35;;;-2.70;99.90;;;;;;5037707;28;20412;-65
2022/03/01 05:37:54;;;;;;;18.80;9.88;;;-2.70;99.90;;;;;;5034457;28;20061;-65
2022/03/01 05:40:27;;;;;;;15.13;8.60;;;-2.70;99.90;;;;;;5041814;28;20511;-65
2022/03/01 05:42:54;;;;;;;18.55;9.95;;;-2.70;99.90;;;;;;5038526;28;20049;-65
2022/03/01 05:45:22;;;;;;;27.95;10.02;;;-2.70;99.90;;;;;;5036057;28;20060;-65
2022/03/01 05:47:49;;;;;;;20.20;9.77;;;-2.70;99.90;;;;;;5039143;28;20037;-65
2022/03/01 05:50:18;;;;;;;17.90;9.40;;;-2.70;99.90;;;;;;5036876;28;20139;-64
2022/03/01 05:52:49;;;;;;;18.83;9.52;;;-2.70;99.90;;;;;;5020215;28;20129;-64
2022/03/01 05:55:17;;;;;;;19.75;10.23;;;-2.70;99.90;;;;;;5030513;28;20094;-64
2022/03/01 05:57:44;;;;;;;21.65;9.98;;;-2.70;99.90;;;;;;5031157;28;20072;-65
2022/03/01 06:00:15;;;;;;;19.42;10.38;;;-2.70;99.90;;;;;;5024290;28;20065;-65
2022/03/01 06:02:43;;;;;;;17.40;9.35;;;-2.60;99.90;;;;;;5018559;28;20614;-65
2022/03/01 06:05:15;;;;;;;18.50;8.98;;;-2.60;99.90;;;;;;5028392;28;20038;-66
2022/03/01 06:07:43;;;;;;;;;;;-2.60;99.90;;;;;;5032673;28;20050;-65
2022/03/01 06:10:10;;;;;;;24.50;9.43;;;-2.60;99.90;;;;;;5031895;28;20067;-64
2022/03/01 06:12:38;;;;;;;19.77;9.48;;;-2.60;99.90;;;;;;5029763;28;20132;-65
2022/03/01 06:15:06;;;;;;;19.90;9.30;;;-2.50;99.90;;;;;;5030984;28;20409;-65
2022/03/01 06:17:33;;;;;;;19.15;9.82;;;-2.50;99.90;;;;;;5031458;28;20041;-65
2022/03/01 06:20:01;;;;;;;15.60;9.13;;;-2.50;99.90;;;;;;5030865;28;20072;-65
2022/03/01 06:22:29;;;;;;;19.42;8.70;;;-2.40;99.90;;;;;;5030218;28;20121;-64
2022/03/01 06:24:56;;;;;;;20.00;9.63;;;-2.40;99.90;;;;;;5012559;28;20519;-65
2022/03/01 06:27:24;;;;;;;17.35;9.82;;;-2.40;99.90;;;;;;5031022;28;20038;-64
2022/03/01 06:29:51;;;;;;;18.17;8.90;;;-2.40;99.90;;;;;;5030954;28;20066;-65
2022/03/01 06:32:19;;;;;;;20.30;10.07;;;-2.30;99.90;;;;;;5026710;28;20112;-64
2022/03/01 06:34:46;;;;;;;20.05;9.85;;;-2.20;99.90;;;;;;5031242;28;20477;-65
2022/03/01 06:37:33;;;;;;;20.95;9.85;;;-2.20;99.90;;;;;;5031171;28;20053;-65
2022/03/01 06:40:00;;;;;;;19.30;10.40;;;-2.10;99.90;;;;;;5031041;28;20033;-64
2022/03/01 06:42:28;;;;;;;20.42;10.48;;;-2.00;99.90;;;;;;5030547;28;20068;-65
2022/03/01 06:44:55;;;;;;;19.10;10.02;;;-1.90;99.90;;;;;;5035763;28;20037;-65
2022/03/01 06:47:22;;;;;;;20.33;9.68;;;-1.90;99.90;;;;;;5032949;28;20398;-65
2022/03/01 06:49:52;;;;;;;18.13;10.13;;;-1.80;99.90;;;;;;5030073;28;20057;-65
2022/03/01 06:52:20;;;;;;;24.88;10.68;;;-1.70;99.90;;;;;;5030395;28;20050;-65
2022/03/01 06:54:47;;;;;;;16.35;9.45;;;-1.70;99.90;;;;;;5036292;28;20123;-65
2022/03/01 06:57:16;;;;;;;18.58;9.48;;;-1.60;99.90;;;;;;5035169;28;20095;-65
2022/03/01 06:59:43;;;;;;;21.00;9.80;;;-1.50;99.90;;;;;;5031808;28;20124;-65
2022/03/01 07:02:11;;;;;;;23.23;10.48;;;-1.50;99.90;;;;;;5030258;28;20040;-65
2022/03/01 07:04:40;;;;;;;18.52;9.55;;;-1.40;99.90;;;;;;5036234;28;20864;-65
2022/03/01 07:07:09;;;;;;;19.63;9.38;;;-1.30;99.90;;;;;;5039587;28;20045;-64
2022/03/01 07:09:37;;;;;;;18.38;9.43;;;-1.30;99.90;;;;;;5024542;28;20068;-65
2022/03/01 07:12:04;;;;;;;15.98;9.20;;;-1.20;99.90;;;;;;5031496;28;20056;-65
2022/03/01 07:14:31;;;;;;;18.63;9.10;;;-1.10;99.90;;;;;;5030901;28;20111;-65
2022/03/01 07:16:59;;;;;;;17.73;9.77;;;-1.00;99.90;;;;;;5022794;28;20033;-65
2022/03/01 07:19:26;;;;;;;16.33;9.70;;;-1.00;99.90;;;;;;5024429;28;20056;-66
2022/03/01 07:21:53;;;;;;;16.17;9.13;;;-0.90;99.90;;;;;;5029741;28;20456;-65
2022/03/01 07:24:21;;;;;;;16.98;8.88;;;-0.80;99.90;;;;;;5030396;28;20140;-66
2022/03/01 07:26:49;;;;;;;18.20;10.75;;;-0.80;99.90;;;;;;5031090;28;20042;-66
2022/03/01 07:29:16;;;;;;;17.25;9.45;;;-0.60;99.90;;;;;;5032418;28;20046;-65
2022/03/01 07:31:44;;;;;;;19.35;8.75;;;-0.50;99.90;;;;;;5043169;28;20792;-66
2022/03/01 07:34:11;;;;;;;18.45;8.77;;;-0.50;99.90;;;;;;5031340;28;20060;-66
2022/03/01 07:36:39;;;;;;;17.70;8.80;;;-0.30;99.90;;;;;;5032178;28;20135;-66
2022/03/01 07:39:06;;;;;;;19.95;9.40;;;-0.30;99.90;;;;;;5029152;28;20067;-67
2022/03/01 07:41:34;;;;;;;16.38;8.65;;;-0.20;99.90;;;;;;5033580;28;20141;-66
2022/03/01 07:44:01;;;;;;;17.92;9.82;;;-0.20;99.90;;;;;;5030995;28;20049;-66
2022/03/01 07:46:29;;;;;;;21.88;11.00;;;-0.10;99.90;;;;;;5030790;28;20061;-66
2022/03/01 07:48:56;;;;;;;18.13;9.35;;;-0.10;99.90;;;;;;5028426;28;20136;-65
2022/03/01 07:51:24;;;;;;;14.95;8.98;;;0.00;99.90;;;;;;5040102;28;20564;-65
2022/03/01 07:53:51;;;;;;;12.63;8.27;;;0.00;99.90;;;;;;5030793;28;20052;-65
2022/03/01 07:56:22;;;;;;;16.45;8.63;;;0.10;99.90;;;;;;5031602;28;20050;-65
2022/03/01 07:58:51;;;;;;;19.67;8.85;;;0.20;99.90;;;;;;5033007;28;20037;-65
2022/03/01 08:01:19;;;;;;;19.67;9.15;;;0.30;99.90;;;;;;5029234;28;20551;-65
2022/03/01 08:03:48;;;;;;;20.73;10.40;;;0.30;99.90;;;;;;5031587;28;20049;-66
2022/03/01 08:06:16;;;;;;;19.38;8.88;;;0.40;99.90;;;;;;5030575;28;20068;-64
2022/03/01 08:08:44;;;;;;;17.85;8.65;;;0.40;99.90;;;;;;5026728;28;20111;-66
2022/03/01 08:11:12;;;;;;;20.23;8.65;;;0.50;99.90;;;;;;5028776;28;20045;-66
2022/03/01 08:13:42;;;;;;;17.73;8.85;;;0.60;99.90;;;;;;5029682;28;20057;-66
2022/03/01 08:16:10;;;;;;;27.83;12.55;;;0.60;99.90;;;;;;5030076;28;20037;-65
2022/03/01 08:18:37;;;;;;;27.05;12.95;;;0.70;99.90;;;;;;5031312;28;20534;-66
2022/03/01 08:21:07;;;;;;;13.27;8.60;;;0.80;99.90;;;;;;5030334;28;20553;-65
2022/03/01 08:23:36;;;;;;;19.25;9.38;;;0.80;99.90;;;;;;5020992;28;20409;-67
2022/03/01 08:26:04;;;;;;;16.02;8.85;;;0.90;99.90;;;;;;5032299;28;20049;-66
2022/03/01 08:28:32;;;;;;;14.82;8.77;;;1.00;99.90;;;;;;5038771;28;20597;-65
2022/03/01 08:30:59;;;;;;;17.15;8.20;;;1.10;99.90;;;;;;5041267;28;20745;-66
2022/03/01 08:33:33;;;;;;;14.82;7.43;;;1.20;99.90;;;;;;5035889;28;20488;-65
2022/03/01 08:36:02;;;;;;;15.82;8.07;;;1.30;99.90;;;;;;5043168;28;20060;-65
2022/03/01 08:38:30;;;;;;;15.05;8.02;;;1.40;99.90;;;;;;5040212;28;20064;-68
2022/03/01 08:40:59;;;;;;;15.98;7.65;;;1.50;99.90;;;;;;5040568;28;20037;-66
2022/03/01 08:43:26;;;;;;;13.43;7.25;;;1.60;99.90;;;;;;5036420;28;20076;-66
2022/03/01 08:45:53;;;;;;;13.70;7.38;;;1.70;99.90;;;;;;5036053;28;20045;-66
2022/03/01 08:48:21;;;;;;;14.48;7.30;;;1.80;99.90;;;;;;5041105;28;20045;-64
2022/03/01 08:50:48;;;;;;;15.43;7.75;;;2.00;99.90;;;;;;5037377;28;20787;-64
2022/03/01 08:53:17;;;;;;;14.13;7.80;;;2.10;99.90;;;;;;5043182;28;20044;-66
2022/03/01 08:55:45;;;;;;;13.40;7.40;;;2.20;99.90;;;;;;5044218;28;20045;-66
2022/03/01 08:58:13;;;;;;;15.00;7.20;;;2.40;99.90;;;;;;5034183;28;20046;-66
2022/03/01 09:00:41;;;;;;;13.95;7.57;;;2.50;99.90;;;;;;5031499;28;20046;-66
2022/03/01 09:03:08;;;;;;;15.07;7.15;;;2.60;99.90;;;;;;5033442;28;20041;-66
2022/03/01 09:05:35;;;;;;;13.80;7.95;;;2.70;99.90;;;;;;5035611;28;20069;-65
2022/03/01 09:08:04;;;;;;;18.83;9.38;;;2.80;99.90;;;;;;5031523;28;20045;-65
2022/03/01 09:10:31;;;;;;;13.32;7.82;;;2.90;99.90;;;;;;5029097;28;20574;-67
2022/03/01 09:12:59;;;;;;;11.88;6.90;;;3.10;99.90;;;;;;5047095;28;20123;-66
2022/03/01 09:15:31;;;;;;;13.02;7.47;;;3.20;99.90;;;;;;5036142;28;20528;-65
2022/03/01 09:18:05;;;;;;;16.67;7.43;;;3.30;99.90;;;;;;5033869;28;20053;-65
2022/03/01 09:20:33;;;;;;;15.60;7.10;;;3.30;99.90;;;;;;5034615;28;20046;-66
2022/03/01 09:23:02;;;;;;;17.92;7.63;;;3.40;99.90;;;;;;5039905;28;20068;-66
2022/03/01 09:25:30;;;;;;;18.08;7.05;;;3.50;99.90;;;;;;5032103;28;20017;-65
2022/03/01 09:28:00;;;;;;;13.07;7.45;;;3.70;99.90;;;;;;5038171;28;20052;-66
2022/03/01 09:30:30;;;;;;;13.68;7.13;;;3.80;99.90;;;;;;5023313;28;20065;-66
2022/03/01 09:33:00;;;;;;;15.90;7.68;;;4.00;99.90;;;;;;5020431;28;20050;-65
2022/03/01 09:35:29;;;;;;;12.85;7.00;;;4.10;99.90;;;;;;5039888;28;20049;-65
2022/03/01 09:37:58;;;;;;;11.52;6.63;;;4.10;99.90;;;;;;5030631;28;20103;-65
2022/03/01 09:40:29;;;;;;;13.77;7.35;;;4.20;99.90;;;;;;5043690;28;20045;-66
2022/03/01 09:43:00;;;;;;;11.27;6.53;;;4.30;99.90;;;;;;5033107;28;20402;-65
2022/03/01 09:45:29;;;;;;;13.50;7.70;;;4.40;99.90;;;;;;5026985;28;20084;-66
2022/03/01 09:47:59;;;;;;;15.07;7.53;;;4.50;99.90;;;;;;5036752;28;20055;-67
2022/03/01 09:50:33;;;;;;;14.30;7.18;;;4.60;99.90;;;;;;5047453;28;20052;-66
2022/03/01 09:53:09;;;;;;;16.60;8.10;;;4.80;99.90;;;;;;5041993;28;20044;-67
2022/03/01 09:55:40;;;;;;;14.27;7.28;;;4.90;99.90;;;;;;5019607;28;20041;-66
2022/03/01 09:58:11;;;;;;;13.18;6.85;;;5.10;99.90;;;;;;5045933;28;20070;-67
2022/03/01 10:00:38;;;;;;;16.52;7.28;;;5.20;99.90;;;;;;5023900;28;20527;-66
2022/03/01 10:03:08;;;;;;;12.93;6.38;;;5.30;99.90;;;;;;5034539;28;20394;-68
2022/03/01 10:05:42;;;;;;;12.65;6.20;;;5.30;99.90;;;;;;5031838;28;20143;-66
2022/03/01 10:08:24;;;;;;;11.32;6.22;;;5.40;99.90;;;;;;5019413;28;20045;-67
2022/03/01 10:10:59;;;;;;;12.48;6.60;;;5.50;99.90;;;;;;5023665;28;20551;-66
2022/03/01 10:13:29;;;;;;;16.10;7.72;;;5.60;99.90;;;;;;5041714;28;20048;-66
2022/03/01 10:16:07;;;;;;;14.45;7.80;;;5.80;99.90;;;;;;5030162;28;20045;-66
2022/03/01 10:18:47;;;;;;;12.25;6.93;;;6.00;99.90;;;;;;5042355;28;20041;-66
2022/03/01 10:21:15;;;;;;;14.02;6.90;;;6.20;99.90;;;;;;5024538;28;20140;-67
2022/03/01 10:23:48;;;;;;;14.35;6.82;;;6.40;99.90;;;;;;5035772;28;20666;-66
2022/03/01 10:26:17;;;;;;;12.35;6.38;;;6.50;99.90;;;;;;5029910;28;20045;-67
2022/03/01 10:28:46;;;;;;;12.52;6.65;;;6.60;99.90;;;;;;5035150;28;20044;-66
2022/03/01 10:31:15;;;;;;;11.60;6.32;;;6.70;99.90;;;;;;5035596;28;20033;-67
2022/03/01 10:34:12;;;;;;;11.43;6.25;;;6.80;99.90;;;;;;5041820;28;20806;-67
2022/03/01 10:36:46;;;;;;;12.85;7.53;;;7.10;99.90;;;;;;5028697;28;20479;-67
2022/03/01 10:39:17;;;;;;;10.95;6.32;;;7.20;99.60;;;;;;5039146;28;20095;-66
2022/03/01 10:41:46;;;;;;;12.45;7.35;;;7.30;99.00;;;;;;5034214;28;20041;-66
2022/03/01 10:44:15;;;;;;;12.48;6.07;;;7.40;98.40;;;;;;5039077;28;20520;-66
2022/03/01 10:46:59;;;;;;;12.20;6.85;;;7.60;98.10;;;;;;5046046;28;20080;-66
2022/03/01 10:49:59;;;;;;;14.13;7.78;;;7.70;97.10;;;;;;5025326;28;20564;-66
2022/03/01 10:52:39;;;;;;;10.35;6.15;;;7.70;96.60;;;;;;5031717;28;20061;-66
2022/03/01 10:55:28;;;;;;;13.20;5.93;;;7.90;95.70;;;;;;5040734;28;20563;-66
2022/03/01 10:58:06;;;;;;;9.13;5.45;;;7.90;95.50;;;;;;5031710;28;20508;-66
2022/03/01 11:00:36;;;;;;;12.52;5.55;;;8.20;95.90;;;;;;5031768;28;20038;-66
2022/03/01 11:03:08;;;;;;;10.82;5.78;;;8.40;94.70;;;;;;5037068;28;20092;-66
2022/03/01 11:05:36;;;;;;;9.15;5.43;;;8.70;93.80;;;;;;5034917;28;20420;-64
2022/03/01 11:08:32;;;;;;;13.73;6.55;;;8.90;93.40;;;;;;5036141;28;20571;-65
2022/03/01 11:11:00;;;;;;;14.40;7.85;;;9.20;92.40;;;;;;5037851;28;20403;-64
2022/03/01 11:13:30;;;;;;;17.17;7.38;;;9.20;91.30;;;;;;5020524;28;20539;-65
2022/03/01 11:16:03;;;;;;;13.05;5.95;;;9.20;91.50;;;;;;5025199;28;20050;-66
2022/03/01 11:18:55;;;;;;;9.50;5.30;;;9.40;91.20;;;;;;5021481;28;20068;-66
2022/03/01 11:21:24;;;;;;;12.82;6.30;;;9.70;90.80;;;;;;5020410;28;20042;-66
2022/03/01 11:23:54;;;;;;;10.73;6.15;;;9.90;89.40;;;;;;5027675;28;20056;-67
2022/03/01 11:26:22;;;;;;;12.10;6.30;;;10.10;89.30;;;;;;5030576;28;20049;-67
2022/03/01 11:28:57;;;;;;;11.80;6.35;;;10.10;88.30;;;;;;5030719;28;20057;-66
2022/03/01 11:31:26;;;;;;;9.32;5.90;;;10.40;88.70;;;;;;5009541;28;20220;-67
2022/03/01 11:33:55;;;;;;;10.02;6.18;;;10.60;87.90;;;;;;5026645;28;20514;-65
2022/03/01 11:36:25;;;;;;;9.40;5.88;;;10.90;86.40;;;;;;5023150;28;20037;-65
2022/03/01 11:38:53;;;;;;;11.82;5.65;;;10.80;84.80;;;;;;5027508;28;20113;-66
2022/03/01 11:41:22;;;;;;;12.80;6.05;;;11.00;84.40;;;;;;5012837;28;20053;-66
2022/03/01 11:43:57;;;;;;;11.45;5.47;;;11.20;83.90;;;;;;5030148;28;20045;-67
2022/03/01 11:46:42;;;;;;;9.90;5.32;;;11.40;81.60;;;;;;5030088;28;20076;-67
2022/03/01 11:49:12;;;;;;;12.13;5.55;;;11.70;81.80;;;;;;5036709;28;20053;-65
2022/03/01 11:51:49;;;;;;;8.52;5.07;;;11.70;78.60;;;;;;5037028;28;20047;-66
2022/03/01 11:54:21;;;;;;;10.45;5.30;;;11.90;79.80;;;;;;5037487;28;20049;-67
2022/03/01 11:56:51;;;;;;;9.68;4.90;;;12.30;78.40;;;;;;5042752;28;20369;-66
2022/03/01 11:59:20;;;;;;;9.35;4.68;;;12.60;76.20;;;;;;5034055;28;20045;-65
2022/03/01 12:02:10;;;;;;;10.70;5.28;;;12.80;74.90;;;;;;5025472;28;20114;-66
2022/03/01 12:04:46;;;;;;;9.18;5.05;;;13.00;73.50;;;;;;5031387;28;20159;-65
2022/03/01 12:07:27;;;;;;;11.50;5.13;;;13.10;72.00;;;;;;5032567;28;20056;-65
2022/03/01 12:10:00;;;;;;;12.13;5.45;;;13.40;72.30;;;;;;5031499;28;20068;-66
2022/03/01 12:12:35;;;;;;;8.27;4.97;;;13.60;71.20;;;;;;5031001;28;20473;-66
2022/03/01 12:15:06;;;;;;;8.75;4.43;;;13.90;71.50;;;;;;5027419;28;20087;-65
2022/03/01 12:17:48;;;;;;;9.88;4.45;;;13.90;68.60;;;;;;5034019;28;20042;-65
2022/03/01 12:20:18;;;;;;;11.50;5.45;;;13.80;67.90;;;;;;5028045;28;20041;-66
2022/03/01 12:23:22;;;;;;;7.22;4.40;;;13.80;67.00;;;;;;5026144;28;20034;-66
2022/03/01 12:25:50;;;;;;;11.32;4.82;;;13.90;66.40;;;;;;5038284;28;20057;-66
2022/03/01 12:28:20;;;;;;;7.90;4.50;;;14.10;66.40;;;;;;5028884;28;20057;-66
2022/03/01 12:30:48;;;;;;;7.88;4.78;;;14.30;67.00;;;;;;5030571;28;20037;-67
2022/03/01 12:33:17;;;;;;;10.45;4.32;;;14.80;66.10;;;;;;5024521;28;20079;-66
2022/03/01 12:35:58;;;;;;;7.13;4.30;;;15.20;66.30;;;;;;5033015;28;20040;-67
2022/03/01 12:38:26;;;;;;;11.98;4.43;;;15.50;64.10;;;;;;5030019;28;20100;-66
2022/03/01 12:40:53;;;;;;;8.18;4.32;;;15.90;64.10;;;;;;5030468;28;20046;-67
2022/03/01 12:43:21;;;;;;;10.43;4.82;;;16.10;63.00;;;;;;5023185;28;20408;-66
2022/03/01 12:45:48;;;;;;;8.63;5.40;;;16.50;61.80;;;;;;5031189;28;20095;-66
2022/03/01 12:48:17;;;;;;;9.50;4.97;;;16.80;60.60;;;;;;5033910;28;20523;-67
2022/03/01 12:50:50;;;;;;;7.50;4.38;;;17.90;59.60;;;;;;5029974;28;20049;-66
2022/03/01 12:53:19;;;;;;;9.93;4.68;;;19.70;58.50;;;;;;5025031;28;20104;-66